Saint Louis Park, Minnesota
Current Conditions -  °F | °C
As of 2:08 AM on Sunday 23 Nov 2014 (Local Time) from KMSP Reporting Station
Haze Haze  
Wind Chill: 42°   Ceiling: 1400
Heat Index: 45°   Visibility: 5mi
Dew Point: 44°   Wind: 6mph
Humidity: 97%   Direction: 150°SSE
Pressure: 29.46"   Gusts: NA
Location:  44.9053°N, 93.3395°W
Report Text: KMSP 230808Z 15005KT 5SM BR BKN014 OVC020 07/07 A2946 RMK AO2 T00720067
Loading
Personal Weather Stations






























Interactive Weather Map New forecast layout! Learn more

10-Day Weather Forecast

Advertisements
Track Severe Weather on mobile